sensor_id;sensor_type;location;lat;lon;timestamp;P1;durP1;ratioP1;P2;durP2;ratioP2
27505;SDS011;14939;43.596;1.320;2022-07-29T00:02:01;7.18;;;2.10;;
27505;SDS011;14939;43.596;1.320;2022-07-29T00:04:27;3.72;;;2.10;;
27505;SDS011;14939;43.596;1.320;2022-07-29T00:06:52;6.18;;;1.90;;
27505;SDS011;14939;43.596;1.320;2022-07-29T00:09:18;3.72;;;1.95;;
27505;SDS011;14939;43.596;1.320;2022-07-29T00:11:44;5.30;;;1.80;;
27505;SDS011;14939;43.596;1.320;2022-07-29T00:14:09;4.95;;;1.88;;
27505;SDS011;14939;43.596;1.320;2022-07-29T00:16:35;3.85;;;1.95;;
27505;SDS011;14939;43.596;1.320;2022-07-29T00:19:01;3.75;;;2.10;;
27505;SDS011;14939;43.596;1.320;2022-07-29T00:21:26;7.38;;;1.88;;
27505;SDS011;14939;43.596;1.320;2022-07-29T00:23:52;6.93;;;2.20;;
27505;SDS011;14939;43.596;1.320;2022-07-29T00:26:18;6.70;;;2.17;;
27505;SDS011;14939;43.596;1.320;2022-07-29T00:28:43;7.38;;;2.15;;
27505;SDS011;14939;43.596;1.320;2022-07-29T00:31:09;4.82;;;2.38;;
27505;SDS011;14939;43.596;1.320;2022-07-29T00:33:35;6.28;;;1.92;;
27505;SDS011;14939;43.596;1.320;2022-07-29T00:36:01;4.45;;;2.13;;
27505;SDS011;14939;43.596;1.320;2022-07-29T00:38:26;5.85;;;1.92;;
27505;SDS011;14939;43.596;1.320;2022-07-29T00:40:52;4.20;;;1.85;;
27505;SDS011;14939;43.596;1.320;2022-07-29T00:43:18;3.88;;;1.77;;
27505;SDS011;14939;43.596;1.320;2022-07-29T00:45:43;8.70;;;2.17;;
27505;SDS011;14939;43.596;1.320;2022-07-29T00:48:09;3.83;;;2.00;;
27505;SDS011;14939;43.596;1.320;2022-07-29T00:50:35;4.07;;;1.85;;
27505;SDS011;14939;43.596;1.320;2022-07-29T00:53:02;3.78;;;2.20;;
27505;SDS011;14939;43.596;1.320;2022-07-29T00:55:29;4.43;;;2.03;;
27505;SDS011;14939;43.596;1.320;2022-07-29T00:57:55;4.68;;;1.92;;
27505;SDS011;14939;43.596;1.320;2022-07-29T01:00:24;5.18;;;2.17;;
27505;SDS011;14939;43.596;1.320;2022-07-29T01:02:51;2.78;;;1.80;;
27505;SDS011;14939;43.596;1.320;2022-07-29T01:05:18;4.68;;;2.13;;
27505;SDS011;14939;43.596;1.320;2022-07-29T01:07:45;2.75;;;2.05;;
27505;SDS011;14939;43.596;1.320;2022-07-29T01:10:13;7.85;;;2.50;;
27505;SDS011;14939;43.596;1.320;2022-07-29T01:12:40;7.93;;;2.10;;
27505;SDS011;14939;43.596;1.320;2022-07-29T01:15:08;5.07;;;2.33;;
27505;SDS011;14939;43.596;1.320;2022-07-29T01:20:17;4.57;;;1.90;;
27505;SDS011;14939;43.596;1.320;2022-07-29T01:31:09;3.58;;;2.20;;
27505;SDS011;14939;43.596;1.320;2022-07-29T01:33:38;4.53;;;2.05;;
27505;SDS011;14939;43.596;1.320;2022-07-29T01:36:16;4.20;;;1.92;;
27505;SDS011;14939;43.596;1.320;2022-07-29T01:39:08;2.72;;;1.67;;
27505;SDS011;14939;43.596;1.320;2022-07-29T01:41:38;4.20;;;1.80;;
27505;SDS011;14939;43.596;1.320;2022-07-29T01:44:10;5.65;;;2.20;;
27505;SDS011;14939;43.596;1.320;2022-07-29T01:46:41;4.63;;;1.80;;
27505;SDS011;14939;43.596;1.320;2022-07-29T01:49:15;4.85;;;1.90;;
27505;SDS011;14939;43.596;1.320;2022-07-29T01:51:46;2.80;;;1.70;;
27505;SDS011;14939;43.596;1.320;2022-07-29T01:54:32;4.18;;;1.88;;
27505;SDS011;14939;43.596;1.320;2022-07-29T01:56:59;3.08;;;2.00;;
27505;SDS011;14939;43.596;1.320;2022-07-29T01:59:26;4.53;;;2.22;;
27505;SDS011;14939;43.596;1.320;2022-07-29T02:01:55;4.72;;;2.20;;
27505;SDS011;14939;43.596;1.320;2022-07-29T02:04:23;4.10;;;2.00;;
27505;SDS011;14939;43.596;1.320;2022-07-29T02:06:51;5.22;;;2.05;;
27505;SDS011;14939;43.596;1.320;2022-07-29T02:09:18;6.32;;;2.25;;
27505;SDS011;14939;43.596;1.320;2022-07-29T02:11:47;7.53;;;1.80;;
27505;SDS011;14939;43.596;1.320;2022-07-29T02:14:17;9.75;;;2.20;;
27505;SDS011;14939;43.596;1.320;2022-07-29T02:16:45;6.75;;;1.80;;
27505;SDS011;14939;43.596;1.320;2022-07-29T02:19:14;4.95;;;1.83;;
27505;SDS011;14939;43.596;1.320;2022-07-29T02:21:43;5.40;;;1.85;;
27505;SDS011;14939;43.596;1.320;2022-07-29T02:24:11;3.30;;;1.73;;
27505;SDS011;14939;43.596;1.320;2022-07-29T02:26:37;4.93;;;1.75;;
27505;SDS011;14939;43.596;1.320;2022-07-29T02:29:06;4.95;;;1.80;;
27505;SDS011;14939;43.596;1.320;2022-07-29T02:31:34;3.63;;;1.85;;
27505;SDS011;14939;43.596;1.320;2022-07-29T02:34:01;5.45;;;2.22;;
27505;SDS011;14939;43.596;1.320;2022-07-29T02:36:29;4.30;;;1.90;;
27505;SDS011;14939;43.596;1.320;2022-07-29T02:38:57;3.58;;;1.75;;
27505;SDS011;14939;43.596;1.320;2022-07-29T02:44:09;4.25;;;2.10;;
27505;SDS011;14939;43.596;1.320;2022-07-29T02:52:04;4.50;;;1.90;;
27505;SDS011;14939;43.596;1.320;2022-07-29T02:54:51;4.78;;;2.13;;
27505;SDS011;14939;43.596;1.320;2022-07-29T02:57:20;5.50;;;1.90;;
27505;SDS011;14939;43.596;1.320;2022-07-29T02:59:52;4.07;;;2.05;;
27505;SDS011;14939;43.596;1.320;2022-07-29T03:02:22;4.90;;;2.03;;
27505;SDS011;14939;43.596;1.320;2022-07-29T03:04:50;4.95;;;1.88;;
27505;SDS011;14939;43.596;1.320;2022-07-29T03:07:18;5.20;;;2.03;;
27505;SDS011;14939;43.596;1.320;2022-07-29T03:09:45;4.45;;;1.98;;
27505;SDS011;14939;43.596;1.320;2022-07-29T03:12:11;4.70;;;2.28;;
27505;SDS011;14939;43.596;1.320;2022-07-29T03:14:38;4.97;;;2.05;;
27505;SDS011;14939;43.596;1.320;2022-07-29T03:17:04;5.68;;;2.00;;
27505;SDS011;14939;43.596;1.320;2022-07-29T03:19:30;6.95;;;2.22;;
27505;SDS011;14939;43.596;1.320;2022-07-29T03:21:59;3.50;;;1.80;;
27505;SDS011;14939;43.596;1.320;2022-07-29T03:24:34;4.32;;;1.80;;
27505;SDS011;14939;43.596;1.320;2022-07-29T03:27:01;4.88;;;2.08;;
27505;SDS011;14939;43.596;1.320;2022-07-29T03:29:28;8.93;;;2.33;;
27505;SDS011;14939;43.596;1.320;2022-07-29T03:31:54;6.70;;;2.05;;
27505;SDS011;14939;43.596;1.320;2022-07-29T03:34:20;4.18;;;2.10;;
27505;SDS011;14939;43.596;1.320;2022-07-29T03:36:46;6.15;;;1.85;;
27505;SDS011;14939;43.596;1.320;2022-07-29T03:39:14;5.50;;;1.90;;
27505;SDS011;14939;43.596;1.320;2022-07-29T03:41:44;4.82;;;2.25;;
27505;SDS011;14939;43.596;1.320;2022-07-29T03:44:13;5.75;;;1.88;;
27505;SDS011;14939;43.596;1.320;2022-07-29T03:46:40;4.90;;;1.92;;
27505;SDS011;14939;43.596;1.320;2022-07-29T03:49:08;7.10;;;1.92;;
27505;SDS011;14939;43.596;1.320;2022-07-29T03:51:35;5.72;;;2.20;;
27505;SDS011;14939;43.596;1.320;2022-07-29T03:54:02;8.23;;;2.10;;
27505;SDS011;14939;43.596;1.320;2022-07-29T03:56:29;3.70;;;1.90;;
27505;SDS011;14939;43.596;1.320;2022-07-29T03:58:57;4.85;;;1.90;;
27505;SDS011;14939;43.596;1.320;2022-07-29T04:01:24;3.55;;;1.88;;
27505;SDS011;14939;43.596;1.320;2022-07-29T04:03:50;3.75;;;1.83;;
27505;SDS011;14939;43.596;1.320;2022-07-29T04:06:16;2.85;;;1.73;;
27505;SDS011;14939;43.596;1.320;2022-07-29T04:08:42;6.13;;;2.17;;
27505;SDS011;14939;43.596;1.320;2022-07-29T04:11:07;7.00;;;2.22;;
27505;SDS011;14939;43.596;1.320;2022-07-29T04:13:33;6.43;;;1.83;;
27505;SDS011;14939;43.596;1.320;2022-07-29T04:15:59;9.45;;;2.08;;
27505;SDS011;14939;43.596;1.320;2022-07-29T04:18:25;5.25;;;1.83;;
27505;SDS011;14939;43.596;1.320;2022-07-29T04:20:50;2.55;;;1.70;;
27505;SDS011;14939;43.596;1.320;2022-07-29T04:23:16;4.28;;;1.77;;
27505;SDS011;14939;43.596;1.320;2022-07-29T04:25:42;6.85;;;1.75;;
27505;SDS011;14939;43.596;1.320;2022-07-29T04:28:07;5.18;;;1.92;;
27505;SDS011;14939;43.596;1.320;2022-07-29T04:30:34;5.55;;;1.80;;
27505;SDS011;14939;43.596;1.320;2022-07-29T04:33:01;7.80;;;1.75;;
27505;SDS011;14939;43.596;1.320;2022-07-29T04:35:29;7.00;;;2.08;;
27505;SDS011;14939;43.596;1.320;2022-07-29T04:37:55;5.15;;;2.03;;
27505;SDS011;14939;43.596;1.320;2022-07-29T04:40:21;5.18;;;1.95;;
27505;SDS011;14939;43.596;1.320;2022-07-29T04:42:47;6.78;;;2.08;;
27505;SDS011;14939;43.596;1.320;2022-07-29T04:45:12;6.85;;;2.30;;
27505;SDS011;14939;43.596;1.320;2022-07-29T04:47:38;2.75;;;1.80;;
27505;SDS011;14939;43.596;1.320;2022-07-29T04:50:05;5.45;;;2.00;;
27505;SDS011;14939;43.596;1.320;2022-07-29T04:52:32;6.28;;;2.47;;
27505;SDS011;14939;43.596;1.320;2022-07-29T04:54:57;6.88;;;2.38;;
27505;SDS011;14939;43.596;1.320;2022-07-29T04:57:23;10.18;;;2.47;;
27505;SDS011;14939;43.596;1.320;2022-07-29T04:59:49;4.53;;;2.60;;
27505;SDS011;14939;43.596;1.320;2022-07-29T05:02:14;6.38;;;2.70;;
27505;SDS011;14939;43.596;1.320;2022-07-29T05:04:40;7.75;;;2.83;;
27505;SDS011;14939;43.596;1.320;2022-07-29T05:07:06;9.98;;;3.10;;
27505;SDS011;14939;43.596;1.320;2022-07-29T05:09:31;6.78;;;2.50;;
27505;SDS011;14939;43.596;1.320;2022-07-29T05:11:57;8.25;;;3.40;;
27505;SDS011;14939;43.596;1.320;2022-07-29T05:14:23;6.75;;;3.08;;
27505;SDS011;14939;43.596;1.320;2022-07-29T05:16:49;5.82;;;3.00;;
27505;SDS011;14939;43.596;1.320;2022-07-29T05:19:16;7.25;;;3.10;;
27505;SDS011;14939;43.596;1.320;2022-07-29T05:21:42;10.65;;;3.70;;
27505;SDS011;14939;43.596;1.320;2022-07-29T05:24:09;10.75;;;4.40;;
27505;SDS011;14939;43.596;1.320;2022-07-29T05:26:35;9.57;;;4.65;;
27505;SDS011;14939;43.596;1.320;2022-07-29T05:29:00;13.23;;;4.80;;
27505;SDS011;14939;43.596;1.320;2022-07-29T05:31:26;8.48;;;3.88;;
27505;SDS011;14939;43.596;1.320;2022-07-29T05:33:52;5.65;;;3.92;;
27505;SDS011;14939;43.596;1.320;2022-07-29T05:36:17;7.55;;;4.05;;
27505;SDS011;14939;43.596;1.320;2022-07-29T05:38:43;10.93;;;3.75;;
27505;SDS011;14939;43.596;1.320;2022-07-29T05:41:09;13.88;;;4.20;;
27505;SDS011;14939;43.596;1.320;2022-07-29T05:43:34;7.72;;;4.97;;
27505;SDS011;14939;43.596;1.320;2022-07-29T05:46:00;8.43;;;4.57;;
27505;SDS011;14939;43.596;1.320;2022-07-29T05:48:26;10.38;;;5.00;;
27505;SDS011;14939;43.596;1.320;2022-07-29T05:50:51;11.90;;;5.20;;
27505;SDS011;14939;43.596;1.320;2022-07-29T05:53:17;8.45;;;4.90;;
27505;SDS011;14939;43.596;1.320;2022-07-29T05:55:43;9.45;;;4.82;;
27505;SDS011;14939;43.596;1.320;2022-07-29T05:58:09;9.60;;;4.82;;
27505;SDS011;14939;43.596;1.320;2022-07-29T06:00:35;7.40;;;4.50;;
27505;SDS011;14939;43.596;1.320;2022-07-29T06:03:00;10.73;;;5.45;;
27505;SDS011;14939;43.596;1.320;2022-07-29T06:05:26;13.30;;;5.05;;
27505;SDS011;14939;43.596;1.320;2022-07-29T06:07:52;12.43;;;5.13;;
27505;SDS011;14939;43.596;1.320;2022-07-29T06:10:18;11.90;;;4.78;;
27505;SDS011;14939;43.596;1.320;2022-07-29T06:12:44;8.57;;;4.72;;
27505;SDS011;14939;43.596;1.320;2022-07-29T06:15:09;8.65;;;4.78;;
27505;SDS011;14939;43.596;1.320;2022-07-29T06:17:35;10.38;;;4.60;;
27505;SDS011;14939;43.596;1.320;2022-07-29T06:20:01;7.72;;;4.40;;
27505;SDS011;14939;43.596;1.320;2022-07-29T06:22:27;9.57;;;4.15;;
27505;SDS011;14939;43.596;1.320;2022-07-29T06:24:53;8.05;;;3.88;;
27505;SDS011;14939;43.596;1.320;2022-07-29T06:27:19;8.45;;;3.90;;
27505;SDS011;14939;43.596;1.320;2022-07-29T06:29:45;8.88;;;4.03;;
27505;SDS011;14939;43.596;1.320;2022-07-29T06:32:10;10.93;;;3.95;;
27505;SDS011;14939;43.596;1.320;2022-07-29T06:34:36;8.32;;;4.03;;
27505;SDS011;14939;43.596;1.320;2022-07-29T06:37:06;10.90;;;4.00;;
27505;SDS011;14939;43.596;1.320;2022-07-29T06:39:33;9.13;;;3.83;;
27505;SDS011;14939;43.596;1.320;2022-07-29T06:42:05;10.65;;;4.20;;
27505;SDS011;14939;43.596;1.320;2022-07-29T06:44:31;14.82;;;5.13;;
27505;SDS011;14939;43.596;1.320;2022-07-29T06:46:59;10.70;;;4.43;;
27505;SDS011;14939;43.596;1.320;2022-07-29T06:49:25;5.85;;;3.75;;
27505;SDS011;14939;43.596;1.320;2022-07-29T06:51:51;11.88;;;4.00;;
27505;SDS011;14939;43.596;1.320;2022-07-29T06:54:17;6.93;;;4.20;;
27505;SDS011;14939;43.596;1.320;2022-07-29T06:56:43;8.05;;;4.25;;
27505;SDS011;14939;43.596;1.320;2022-07-29T06:59:09;10.07;;;4.70;;
27505;SDS011;14939;43.596;1.320;2022-07-29T07:01:36;11.65;;;4.10;;
27505;SDS011;14939;43.596;1.320;2022-07-29T07:04:03;8.68;;;3.97;;
27505;SDS011;14939;43.596;1.320;2022-07-29T07:06:29;10.27;;;3.70;;
27505;SDS011;14939;43.596;1.320;2022-07-29T07:08:55;12.85;;;4.30;;
27505;SDS011;14939;43.596;1.320;2022-07-29T07:11:20;9.40;;;4.18;;
27505;SDS011;14939;43.596;1.320;2022-07-29T07:13:46;7.00;;;4.75;;
27505;SDS011;14939;43.596;1.320;2022-07-29T07:16:12;8.93;;;4.60;;
27505;SDS011;14939;43.596;1.320;2022-07-29T07:18:37;6.70;;;4.28;;
27505;SDS011;14939;43.596;1.320;2022-07-29T07:21:03;8.57;;;3.83;;
27505;SDS011;14939;43.596;1.320;2022-07-29T07:23:30;7.45;;;4.28;;
27505;SDS011;14939;43.596;1.320;2022-07-29T07:25:55;8.73;;;4.03;;
27505;SDS011;14939;43.596;1.320;2022-07-29T07:28:21;6.10;;;3.67;;
27505;SDS011;14939;43.596;1.320;2022-07-29T07:30:47;6.45;;;3.85;;
27505;SDS011;14939;43.596;1.320;2022-07-29T07:33:13;6.45;;;3.67;;
27505;SDS011;14939;43.596;1.320;2022-07-29T07:35:39;6.85;;;3.95;;
27505;SDS011;14939;43.596;1.320;2022-07-29T07:38:05;7.75;;;4.10;;
27505;SDS011;14939;43.596;1.320;2022-07-29T07:40:31;8.52;;;4.50;;
27505;SDS011;14939;43.596;1.320;2022-07-29T07:42:57;13.02;;;4.60;;
27505;SDS011;14939;43.596;1.320;2022-07-29T07:45:22;6.82;;;4.03;;
27505;SDS011;14939;43.596;1.320;2022-07-29T07:47:48;9.18;;;4.10;;
27505;SDS011;14939;43.596;1.320;2022-07-29T07:50:14;7.75;;;4.57;;
27505;SDS011;14939;43.596;1.320;2022-07-29T07:52:49;8.57;;;4.40;;
27505;SDS011;14939;43.596;1.320;2022-07-29T07:55:17;7.05;;;4.38;;
27505;SDS011;14939;43.596;1.320;2022-07-29T07:57:43;9.27;;;3.60;;
27505;SDS011;14939;43.596;1.320;2022-07-29T08:00:10;6.05;;;3.83;;
27505;SDS011;14939;43.596;1.320;2022-07-29T08:02:37;5.45;;;3.78;;
27505;SDS011;14939;43.596;1.320;2022-07-29T08:05:04;8.30;;;4.57;;
27505;SDS011;14939;43.596;1.320;2022-07-29T08:07:31;7.72;;;3.67;;
27505;SDS011;14939;43.596;1.320;2022-07-29T08:09:57;8.05;;;3.95;;
27505;SDS011;14939;43.596;1.320;2022-07-29T08:12:23;5.70;;;3.70;;
27505;SDS011;14939;43.596;1.320;2022-07-29T08:14:48;6.80;;;3.78;;
27505;SDS011;14939;43.596;1.320;2022-07-29T08:17:14;5.88;;;3.33;;
27505;SDS011;14939;43.596;1.320;2022-07-29T08:19:39;6.95;;;3.38;;
27505;SDS011;14939;43.596;1.320;2022-07-29T08:22:05;5.10;;;3.42;;
27505;SDS011;14939;43.596;1.320;2022-07-29T08:24:31;6.68;;;3.60;;
27505;SDS011;14939;43.596;1.320;2022-07-29T08:27:12;10.43;;;3.80;;
27505;SDS011;14939;43.596;1.320;2022-07-29T08:29:39;6.50;;;3.70;;
27505;SDS011;14939;43.596;1.320;2022-07-29T08:32:05;7.95;;;3.90;;
27505;SDS011;14939;43.596;1.320;2022-07-29T08:34:31;8.77;;;4.30;;
27505;SDS011;14939;43.596;1.320;2022-07-29T08:36:57;5.93;;;3.70;;
27505;SDS011;14939;43.596;1.320;2022-07-29T08:39:23;8.27;;;4.45;;
27505;SDS011;14939;43.596;1.320;2022-07-29T08:41:49;8.50;;;4.30;;
27505;SDS011;14939;43.596;1.320;2022-07-29T08:44:16;6.55;;;4.25;;
27505;SDS011;14939;43.596;1.320;2022-07-29T08:46:46;11.70;;;4.28;;
27505;SDS011;14939;43.596;1.320;2022-07-29T08:49:13;5.10;;;3.45;;
27505;SDS011;14939;43.596;1.320;2022-07-29T08:51:39;7.05;;;4.13;;
27505;SDS011;14939;43.596;1.320;2022-07-29T08:54:06;6.40;;;3.83;;
27505;SDS011;14939;43.596;1.320;2022-07-29T08:56:34;10.02;;;4.22;;
27505;SDS011;14939;43.596;1.320;2022-07-29T08:59:04;8.85;;;3.88;;
27505;SDS011;14939;43.596;1.320;2022-07-29T09:01:32;7.13;;;3.63;;
27505;SDS011;14939;43.596;1.320;2022-07-29T09:03:59;7.75;;;3.55;;
27505;SDS011;14939;43.596;1.320;2022-07-29T09:06:29;5.85;;;3.63;;
27505;SDS011;14939;43.596;1.320;2022-07-29T09:08:59;5.90;;;3.75;;
27505;SDS011;14939;43.596;1.320;2022-07-29T09:11:26;5.65;;;3.42;;
27505;SDS011;14939;43.596;1.320;2022-07-29T09:13:52;6.32;;;3.72;;
27505;SDS011;14939;43.596;1.320;2022-07-29T09:16:17;6.45;;;3.40;;
27505;SDS011;14939;43.596;1.320;2022-07-29T09:18:44;6.07;;;3.90;;
27505;SDS011;14939;43.596;1.320;2022-07-29T09:21:14;6.60;;;3.17;;
27505;SDS011;14939;43.596;1.320;2022-07-29T09:24:01;6.10;;;3.85;;
27505;SDS011;14939;43.596;1.320;2022-07-29T09:26:39;5.60;;;3.70;;
27505;SDS011;14939;43.596;1.320;2022-07-29T09:29:16;6.03;;;3.40;;
27505;SDS011;14939;43.596;1.320;2022-07-29T09:31:50;7.97;;;4.03;;
27505;SDS011;14939;43.596;1.320;2022-07-29T09:34:21;6.55;;;3.38;;
27505;SDS011;14939;43.596;1.320;2022-07-29T09:36:49;5.90;;;3.83;;
27505;SDS011;14939;43.596;1.320;2022-07-29T09:39:26;7.55;;;3.85;;
27505;SDS011;14939;43.596;1.320;2022-07-29T09:41:53;8.20;;;4.20;;
27505;SDS011;14939;43.596;1.320;2022-07-29T09:44:21;12.13;;;4.88;;
27505;SDS011;14939;43.596;1.320;2022-07-29T09:49:19;10.60;;;5.65;;
27505;SDS011;14939;43.596;1.320;2022-07-29T09:51:45;8.38;;;4.40;;
27505;SDS011;14939;43.596;1.320;2022-07-29T09:56:51;6.82;;;3.72;;
27505;SDS011;14939;43.596;1.320;2022-07-29T09:59:17;5.70;;;3.40;;
27505;SDS011;14939;43.596;1.320;2022-07-29T10:01:45;7.22;;;3.22;;
27505;SDS011;14939;43.596;1.320;2022-07-29T10:04:11;5.53;;;3.35;;
27505;SDS011;14939;43.596;1.320;2022-07-29T10:06:54;8.75;;;3.22;;
27505;SDS011;14939;43.596;1.320;2022-07-29T10:09:24;7.47;;;2.90;;
27505;SDS011;14939;43.596;1.320;2022-07-29T10:14:34;8.98;;;3.00;;
27505;SDS011;14939;43.596;1.320;2022-07-29T10:17:01;5.80;;;2.80;;
27505;SDS011;14939;43.596;1.320;2022-07-29T10:19:28;6.28;;;2.22;;
27505;SDS011;14939;43.596;1.320;2022-07-29T10:21:56;7.90;;;2.72;;
27505;SDS011;14939;43.596;1.320;2022-07-29T10:24:24;5.68;;;2.28;;
27505;SDS011;14939;43.596;1.320;2022-07-29T10:26:57;5.05;;;2.22;;
27505;SDS011;14939;43.596;1.320;2022-07-29T10:29:26;3.72;;;1.90;;
27505;SDS011;14939;43.596;1.320;2022-07-29T10:35:06;4.28;;;2.13;;
27505;SDS011;14939;43.596;1.320;2022-07-29T10:43:37;3.75;;;1.90;;
27505;SDS011;14939;43.596;1.320;2022-07-29T10:46:07;6.88;;;2.30;;
27505;SDS011;14939;43.596;1.320;2022-07-29T10:48:33;5.38;;;2.05;;
27505;SDS011;14939;43.596;1.320;2022-07-29T10:51:03;5.38;;;1.90;;
27505;SDS011;14939;43.596;1.320;2022-07-29T10:53:46;5.00;;;1.88;;
27505;SDS011;14939;43.596;1.320;2022-07-29T11:01:51;3.85;;;2.30;;
27505;SDS011;14939;43.596;1.320;2022-07-29T11:07:16;7.40;;;2.58;;
27505;SDS011;14939;43.596;1.320;2022-07-29T11:09:42;7.05;;;2.58;;
27505;SDS011;14939;43.596;1.320;2022-07-29T11:15:07;6.68;;;2.40;;
27505;SDS011;14939;43.596;1.320;2022-07-29T11:18:10;5.22;;;2.38;;
27505;SDS011;14939;43.596;1.320;2022-07-29T11:20:36;6.53;;;2.80;;
27505;SDS011;14939;43.596;1.320;2022-07-29T11:31:17;5.43;;;2.50;;
27505;SDS011;14939;43.596;1.320;2022-07-29T11:44:58;6.63;;;2.33;;
27505;SDS011;14939;43.596;1.320;2022-07-29T11:47:25;3.58;;;1.92;;
27505;SDS011;14939;43.596;1.320;2022-07-29T11:49:53;4.93;;;2.05;;
27505;SDS011;14939;43.596;1.320;2022-07-29T11:52:21;3.80;;;2.28;;
27505;SDS011;14939;43.596;1.320;2022-07-29T11:54:47;4.22;;;2.40;;
27505;SDS011;14939;43.596;1.320;2022-07-29T11:57:17;9.18;;;2.30;;
27505;SDS011;14939;43.596;1.320;2022-07-29T11:59:44;4.32;;;2.30;;
27505;SDS011;14939;43.596;1.320;2022-07-29T12:02:11;4.70;;;2.28;;
27505;SDS011;14939;43.596;1.320;2022-07-29T12:04:54;4.03;;;2.28;;
27505;SDS011;14939;43.596;1.320;2022-07-29T12:07:28;4.30;;;2.30;;
27505;SDS011;14939;43.596;1.320;2022-07-29T12:09:58;6.43;;;2.30;;
27505;SDS011;14939;43.596;1.320;2022-07-29T12:12:24;4.88;;;1.98;;
27505;SDS011;14939;43.596;1.320;2022-07-29T12:14:50;5.72;;;2.30;;
27505;SDS011;14939;43.596;1.320;2022-07-29T12:17:32;4.63;;;2.20;;
27505;SDS011;14939;43.596;1.320;2022-07-29T12:20:00;5.35;;;2.17;;
27505;SDS011;14939;43.596;1.320;2022-07-29T12:22:32;7.35;;;2.10;;
27505;SDS011;14939;43.596;1.320;2022-07-29T12:25:05;3.70;;;2.05;;
27505;SDS011;14939;43.596;1.320;2022-07-29T12:27:31;3.97;;;1.85;;
27505;SDS011;14939;43.596;1.320;2022-07-29T12:30:01;7.07;;;2.10;;
27505;SDS011;14939;43.596;1.320;2022-07-29T12:32:36;3.28;;;2.20;;
27505;SDS011;14939;43.596;1.320;2022-07-29T12:35:04;4.60;;;2.15;;
27505;SDS011;14939;43.596;1.320;2022-07-29T12:37:32;4.70;;;2.15;;
27505;SDS011;14939;43.596;1.320;2022-07-29T12:39:59;3.45;;;2.30;;
27505;SDS011;14939;43.596;1.320;2022-07-29T12:42:26;2.53;;;1.65;;
27505;SDS011;14939;43.596;1.320;2022-07-29T12:44:52;3.78;;;1.90;;
27505;SDS011;14939;43.596;1.320;2022-07-29T12:47:19;6.95;;;2.05;;
27505;SDS011;14939;43.596;1.320;2022-07-29T12:49:45;5.57;;;2.00;;
27505;SDS011;14939;43.596;1.320;2022-07-29T12:52:27;3.42;;;1.90;;
27505;SDS011;14939;43.596;1.320;2022-07-29T12:54:57;3.25;;;1.70;;
27505;SDS011;14939;43.596;1.320;2022-07-29T12:57:23;2.83;;;1.85;;
27505;SDS011;14939;43.596;1.320;2022-07-29T13:00:10;3.35;;;2.13;;
27505;SDS011;14939;43.596;1.320;2022-07-29T13:02:38;4.15;;;2.08;;
27505;SDS011;14939;43.596;1.320;2022-07-29T13:05:06;7.28;;;2.05;;
27505;SDS011;14939;43.596;1.320;2022-07-29T13:07:33;5.05;;;2.05;;
27505;SDS011;14939;43.596;1.320;2022-07-29T13:10:11;4.70;;;2.25;;
27505;SDS011;14939;43.596;1.320;2022-07-29T13:15:41;4.72;;;2.00;;
27505;SDS011;14939;43.596;1.320;2022-07-29T13:18:30;5.78;;;1.90;;
27505;SDS011;14939;43.596;1.320;2022-07-29T13:21:19;3.45;;;2.30;;
27505;SDS011;14939;43.596;1.320;2022-07-29T13:23:44;4.00;;;1.85;;
27505;SDS011;14939;43.596;1.320;2022-07-29T13:26:10;4.03;;;2.15;;
27505;SDS011;14939;43.596;1.320;2022-07-29T13:28:37;3.83;;;2.08;;
27505;SDS011;14939;43.596;1.320;2022-07-29T13:31:02;5.22;;;2.20;;
27505;SDS011;14939;43.596;1.320;2022-07-29T13:33:29;4.93;;;2.40;;
27505;SDS011;14939;43.596;1.320;2022-07-29T13:35:55;6.05;;;2.20;;
27505;SDS011;14939;43.596;1.320;2022-07-29T13:38:21;8.90;;;1.95;;
27505;SDS011;14939;43.596;1.320;2022-07-29T13:40:47;3.65;;;1.80;;
27505;SDS011;14939;43.596;1.320;2022-07-29T13:43:12;5.72;;;1.77;;
27505;SDS011;14939;43.596;1.320;2022-07-29T13:45:38;6.35;;;2.13;;
27505;SDS011;14939;43.596;1.320;2022-07-29T13:48:04;4.60;;;2.17;;
27505;SDS011;14939;43.596;1.320;2022-07-29T13:50:31;12.70;;;1.98;;
27505;SDS011;14939;43.596;1.320;2022-07-29T13:52:56;3.58;;;2.13;;
27505;SDS011;14939;43.596;1.320;2022-07-29T13:55:22;5.03;;;2.00;;
27505;SDS011;14939;43.596;1.320;2022-07-29T13:57:48;4.28;;;2.10;;
27505;SDS011;14939;43.596;1.320;2022-07-29T14:00:14;9.15;;;2.20;;
27505;SDS011;14939;43.596;1.320;2022-07-29T14:02:40;4.97;;;2.03;;
27505;SDS011;14939;43.596;1.320;2022-07-29T14:05:06;5.22;;;2.08;;
27505;SDS011;14939;43.596;1.320;2022-07-29T14:07:32;2.92;;;1.90;;
27505;SDS011;14939;43.596;1.320;2022-07-29T14:09:58;8.13;;;1.80;;
27505;SDS011;14939;43.596;1.320;2022-07-29T14:12:24;5.03;;;2.05;;
27505;SDS011;14939;43.596;1.320;2022-07-29T14:14:49;2.38;;;1.75;;
27505;SDS011;14939;43.596;1.320;2022-07-29T14:17:15;5.45;;;2.22;;
27505;SDS011;14939;43.596;1.320;2022-07-29T14:19:41;6.95;;;1.95;;
27505;SDS011;14939;43.596;1.320;2022-07-29T14:22:07;37.90;;;4.05;;
27505;SDS011;14939;43.596;1.320;2022-07-29T14:24:33;4.88;;;1.90;;
27505;SDS011;14939;43.596;1.320;2022-07-29T14:27:00;3.97;;;2.00;;
27505;SDS011;14939;43.596;1.320;2022-07-29T14:29:25;3.80;;;2.00;;
27505;SDS011;14939;43.596;1.320;2022-07-29T14:31:51;4.57;;;1.75;;
27505;SDS011;14939;43.596;1.320;2022-07-29T14:34:17;4.30;;;1.80;;
27505;SDS011;14939;43.596;1.320;2022-07-29T14:36:43;2.28;;;1.70;;
27505;SDS011;14939;43.596;1.320;2022-07-29T14:39:08;4.95;;;1.83;;
27505;SDS011;14939;43.596;1.320;2022-07-29T14:41:34;3.83;;;2.00;;
27505;SDS011;14939;43.596;1.320;2022-07-29T14:44:00;4.45;;;1.70;;
27505;SDS011;14939;43.596;1.320;2022-07-29T14:46:26;3.25;;;1.75;;
27505;SDS011;14939;43.596;1.320;2022-07-29T14:48:52;5.72;;;1.98;;
27505;SDS011;14939;43.596;1.320;2022-07-29T14:51:18;3.92;;;1.80;;
27505;SDS011;14939;43.596;1.320;2022-07-29T14:53:43;3.80;;;1.80;;
27505;SDS011;14939;43.596;1.320;2022-07-29T14:56:09;3.33;;;1.77;;
27505;SDS011;14939;43.596;1.320;2022-07-29T14:58:35;5.53;;;1.90;;
27505;SDS011;14939;43.596;1.320;2022-07-29T15:01:01;3.88;;;1.65;;
27505;SDS011;14939;43.596;1.320;2022-07-29T15:03:27;6.18;;;2.17;;
27505;SDS011;14939;43.596;1.320;2022-07-29T15:05:53;4.05;;;1.75;;
27505;SDS011;14939;43.596;1.320;2022-07-29T15:08:19;6.22;;;1.90;;
27505;SDS011;14939;43.596;1.320;2022-07-29T15:10:45;3.22;;;1.50;;
27505;SDS011;14939;43.596;1.320;2022-07-29T15:13:11;4.88;;;1.90;;
27505;SDS011;14939;43.596;1.320;2022-07-29T15:15:37;5.90;;;1.70;;
27505;SDS011;14939;43.596;1.320;2022-07-29T15:18:03;5.53;;;2.00;;
27505;SDS011;14939;43.596;1.320;2022-07-29T15:20:29;4.05;;;1.83;;
27505;SDS011;14939;43.596;1.320;2022-07-29T15:22:55;2.38;;;1.50;;
27505;SDS011;14939;43.596;1.320;2022-07-29T15:25:24;5.50;;;1.80;;
27505;SDS011;14939;43.596;1.320;2022-07-29T15:27:50;5.03;;;1.73;;
27505;SDS011;14939;43.596;1.320;2022-07-29T15:30:16;5.28;;;1.50;;
27505;SDS011;14939;43.596;1.320;2022-07-29T15:32:45;3.40;;;1.70;;
27505;SDS011;14939;43.596;1.320;2022-07-29T15:35:11;5.15;;;2.00;;
27505;SDS011;14939;43.596;1.320;2022-07-29T15:37:37;2.90;;;1.52;;
27505;SDS011;14939;43.596;1.320;2022-07-29T15:40:04;5.47;;;2.00;;
27505;SDS011;14939;43.596;1.320;2022-07-29T15:42:31;3.22;;;1.50;;
27505;SDS011;14939;43.596;1.320;2022-07-29T15:44:57;7.20;;;1.63;;
27505;SDS011;14939;43.596;1.320;2022-07-29T15:47:22;3.25;;;1.90;;
27505;SDS011;14939;43.596;1.320;2022-07-29T15:49:48;3.05;;;1.77;;
27505;SDS011;14939;43.596;1.320;2022-07-29T15:52:15;3.00;;;1.50;;
27505;SDS011;14939;43.596;1.320;2022-07-29T15:54:44;4.28;;;1.58;;
27505;SDS011;14939;43.596;1.320;2022-07-29T15:57:10;2.70;;;1.40;;
27505;SDS011;14939;43.596;1.320;2022-07-29T15:59:36;4.05;;;1.50;;